sensor_id;sensor_type;location;lat;lon;timestamp;P1;durP1;ratioP1;P2;durP2;ratioP2
78774;SDS011;68119;43.398;3.676;2023-04-25T00:01:35;6.15;;;2.55;;
78774;SDS011;68119;43.398;3.676;2023-04-25T00:04:03;5.10;;;2.67;;
78774;SDS011;68119;43.398;3.676;2023-04-25T00:06:33;5.72;;;2.47;;
78774;SDS011;68119;43.398;3.676;2023-04-25T00:09:05;5.35;;;2.50;;
78774;SDS011;68119;43.398;3.676;2023-04-25T00:11:36;5.10;;;2.47;;
78774;SDS011;68119;43.398;3.676;2023-04-25T00:14:05;6.28;;;2.20;;
78774;SDS011;68119;43.398;3.676;2023-04-25T00:16:34;4.38;;;2.45;;
78774;SDS011;68119;43.398;3.676;2023-04-25T00:19:01;4.95;;;2.40;;
78774;SDS011;68119;43.398;3.676;2023-04-25T00:21:30;4.82;;;2.30;;
78774;SDS011;68119;43.398;3.676;2023-04-25T00:23:56;4.93;;;2.45;;
78774;SDS011;68119;43.398;3.676;2023-04-25T00:26:25;4.78;;;2.22;;
78774;SDS011;68119;43.398;3.676;2023-04-25T00:28:51;8.30;;;2.03;;
78774;SDS011;68119;43.398;3.676;2023-04-25T00:31:23;3.88;;;2.30;;
78774;SDS011;68119;43.398;3.676;2023-04-25T00:33:49;4.70;;;2.20;;
78774;SDS011;68119;43.398;3.676;2023-04-25T00:36:18;4.88;;;2.40;;
78774;SDS011;68119;43.398;3.676;2023-04-25T00:38:44;3.53;;;2.30;;
78774;SDS011;68119;43.398;3.676;2023-04-25T00:41:10;2.92;;;2.10;;
78774;SDS011;68119;43.398;3.676;2023-04-25T00:43:37;5.80;;;2.25;;
78774;SDS011;68119;43.398;3.676;2023-04-25T00:46:03;5.00;;;2.20;;
78774;SDS011;68119;43.398;3.676;2023-04-25T00:48:29;3.15;;;2.00;;
78774;SDS011;68119;43.398;3.676;2023-04-25T00:50:59;2.47;;;1.83;;
78774;SDS011;68119;43.398;3.676;2023-04-25T00:53:30;3.22;;;2.03;;
78774;SDS011;68119;43.398;3.676;2023-04-25T00:55:57;5.93;;;2.20;;
78774;SDS011;68119;43.398;3.676;2023-04-25T00:58:24;2.83;;;2.00;;
78774;SDS011;68119;43.398;3.676;2023-04-25T01:00:50;3.53;;;1.98;;
78774;SDS011;68119;43.398;3.676;2023-04-25T01:03:20;2.58;;;1.90;;
78774;SDS011;68119;43.398;3.676;2023-04-25T01:05:49;3.78;;;2.10;;
78774;SDS011;68119;43.398;3.676;2023-04-25T01:08:15;2.38;;;1.65;;
78774;SDS011;68119;43.398;3.676;2023-04-25T01:10:44;4.07;;;1.95;;
78774;SDS011;68119;43.398;3.676;2023-04-25T01:13:14;7.43;;;1.80;;
78774;SDS011;68119;43.398;3.676;2023-04-25T01:18:08;2.50;;;1.83;;
78774;SDS011;68119;43.398;3.676;2023-04-25T01:20:35;3.33;;;1.92;;
78774;SDS011;68119;43.398;3.676;2023-04-25T01:23:05;3.22;;;2.25;;
78774;SDS011;68119;43.398;3.676;2023-04-25T01:25:31;3.13;;;1.70;;
78774;SDS011;68119;43.398;3.676;2023-04-25T01:28:00;5.60;;;2.00;;
78774;SDS011;68119;43.398;3.676;2023-04-25T01:30:26;3.28;;;1.98;;
78774;SDS011;68119;43.398;3.676;2023-04-25T01:32:55;3.40;;;1.90;;
78774;SDS011;68119;43.398;3.676;2023-04-25T01:35:22;4.85;;;1.95;;
78774;SDS011;68119;43.398;3.676;2023-04-25T01:37:51;3.92;;;2.17;;
78774;SDS011;68119;43.398;3.676;2023-04-25T01:40:17;3.58;;;1.90;;
78774;SDS011;68119;43.398;3.676;2023-04-25T01:42:50;2.90;;;2.17;;
78774;SDS011;68119;43.398;3.676;2023-04-25T01:45:16;3.60;;;2.15;;
78774;SDS011;68119;43.398;3.676;2023-04-25T01:47:43;2.65;;;1.90;;
78774;SDS011;68119;43.398;3.676;2023-04-25T01:50:16;3.65;;;2.00;;
78774;SDS011;68119;43.398;3.676;2023-04-25T01:52:45;1.98;;;1.70;;
78774;SDS011;68119;43.398;3.676;2023-04-25T01:55:11;3.63;;;1.63;;
78774;SDS011;68119;43.398;3.676;2023-04-25T01:57:39;2.85;;;1.60;;
78774;SDS011;68119;43.398;3.676;2023-04-25T02:00:06;2.28;;;1.60;;
78774;SDS011;68119;43.398;3.676;2023-04-25T02:02:36;3.13;;;1.60;;
78774;SDS011;68119;43.398;3.676;2023-04-25T02:05:08;2.58;;;1.42;;
78774;SDS011;68119;43.398;3.676;2023-04-25T02:07:35;1.58;;;1.42;;
78774;SDS011;68119;43.398;3.676;2023-04-25T02:10:03;2.40;;;1.50;;
78774;SDS011;68119;43.398;3.676;2023-04-25T02:12:32;2.17;;;1.50;;
78774;SDS011;68119;43.398;3.676;2023-04-25T02:14:58;3.33;;;1.63;;
78774;SDS011;68119;43.398;3.676;2023-04-25T02:17:24;2.50;;;1.35;;
78774;SDS011;68119;43.398;3.676;2023-04-25T02:19:53;2.47;;;1.42;;
78774;SDS011;68119;43.398;3.676;2023-04-25T02:22:19;2.25;;;1.50;;
78774;SDS011;68119;43.398;3.676;2023-04-25T02:24:46;1.58;;;1.48;;
78774;SDS011;68119;43.398;3.676;2023-04-25T02:27:12;1.42;;;1.33;;
78774;SDS011;68119;43.398;3.676;2023-04-25T02:29:40;2.47;;;1.30;;
78774;SDS011;68119;43.398;3.676;2023-04-25T02:32:12;1.40;;;1.30;;
78774;SDS011;68119;43.398;3.676;2023-04-25T02:34:39;1.60;;;1.50;;
78774;SDS011;68119;43.398;3.676;2023-04-25T02:37:05;1.98;;;1.50;;
78774;SDS011;68119;43.398;3.676;2023-04-25T02:39:31;2.30;;;1.30;;
78774;SDS011;68119;43.398;3.676;2023-04-25T02:42:02;1.45;;;1.20;;
78774;SDS011;68119;43.398;3.676;2023-04-25T02:44:31;1.50;;;1.20;;
78774;SDS011;68119;43.398;3.676;2023-04-25T02:46:57;1.05;;;1.05;;
78774;SDS011;68119;43.398;3.676;2023-04-25T02:49:29;1.75;;;1.20;;
78774;SDS011;68119;43.398;3.676;2023-04-25T02:51:58;1.80;;;1.30;;
78774;SDS011;68119;43.398;3.676;2023-04-25T02:54:30;1.33;;;1.20;;
78774;SDS011;68119;43.398;3.676;2023-04-25T02:56:56;1.38;;;1.10;;
78774;SDS011;68119;43.398;3.676;2023-04-25T02:59:22;2.08;;;1.10;;
78774;SDS011;68119;43.398;3.676;2023-04-25T03:01:51;1.20;;;1.10;;
78774;SDS011;68119;43.398;3.676;2023-04-25T03:04:22;1.70;;;1.00;;
78774;SDS011;68119;43.398;3.676;2023-04-25T03:06:56;2.85;;;1.20;;
78774;SDS011;68119;43.398;3.676;2023-04-25T03:09:26;0.98;;;0.93;;
78774;SDS011;68119;43.398;3.676;2023-04-25T03:11:52;1.40;;;1.05;;
78774;SDS011;68119;43.398;3.676;2023-04-25T03:14:21;2.85;;;1.13;;
78774;SDS011;68119;43.398;3.676;2023-04-25T03:16:47;2.33;;;1.38;;
78774;SDS011;68119;43.398;3.676;2023-04-25T03:19:13;1.30;;;1.20;;
78774;SDS011;68119;43.398;3.676;2023-04-25T03:21:42;1.90;;;1.40;;
78774;SDS011;68119;43.398;3.676;2023-04-25T03:24:08;1.48;;;1.20;;
78774;SDS011;68119;43.398;3.676;2023-04-25T03:26:35;1.23;;;1.08;;
78774;SDS011;68119;43.398;3.676;2023-04-25T03:29:02;1.98;;;1.42;;
78774;SDS011;68119;43.398;3.676;2023-04-25T03:31:30;2.25;;;1.60;;
78774;SDS011;68119;43.398;3.676;2023-04-25T03:33:57;2.70;;;1.65;;
78774;SDS011;68119;43.398;3.676;2023-04-25T03:36:25;2.65;;;1.40;;
78774;SDS011;68119;43.398;3.676;2023-04-25T03:38:51;1.95;;;1.38;;
78774;SDS011;68119;43.398;3.676;2023-04-25T03:41:17;1.33;;;1.23;;
78774;SDS011;68119;43.398;3.676;2023-04-25T03:43:44;1.60;;;1.50;;
78774;SDS011;68119;43.398;3.676;2023-04-25T03:46:15;1.80;;;1.50;;
78774;SDS011;68119;43.398;3.676;2023-04-25T03:48:44;2.30;;;1.50;;
78774;SDS011;68119;43.398;3.676;2023-04-25T03:51:10;3.50;;;1.60;;
78774;SDS011;68119;43.398;3.676;2023-04-25T03:53:39;2.10;;;1.50;;
78774;SDS011;68119;43.398;3.676;2023-04-25T03:56:05;2.40;;;1.60;;
78774;SDS011;68119;43.398;3.676;2023-04-25T03:58:31;1.60;;;1.50;;
78774;SDS011;68119;43.398;3.676;2023-04-25T04:00:57;1.60;;;1.48;;
78774;SDS011;68119;43.398;3.676;2023-04-25T04:03:31;1.55;;;1.35;;
78774;SDS011;68119;43.398;3.676;2023-04-25T04:06:00;2.15;;;1.73;;
78774;SDS011;68119;43.398;3.676;2023-04-25T04:08:29;2.25;;;1.50;;
78774;SDS011;68119;43.398;3.676;2023-04-25T04:11:00;1.67;;;1.58;;
78774;SDS011;68119;43.398;3.676;2023-04-25T04:13:29;2.10;;;1.65;;
78774;SDS011;68119;43.398;3.676;2023-04-25T04:15:55;2.30;;;1.63;;
78774;SDS011;68119;43.398;3.676;2023-04-25T04:18:22;2.22;;;1.45;;
78774;SDS011;68119;43.398;3.676;2023-04-25T04:20:55;1.52;;;1.42;;
78774;SDS011;68119;43.398;3.676;2023-04-25T04:23:27;3.85;;;1.67;;
78774;SDS011;68119;43.398;3.676;2023-04-25T04:25:54;1.48;;;1.40;;
78774;SDS011;68119;43.398;3.676;2023-04-25T04:28:21;1.98;;;1.50;;
78774;SDS011;68119;43.398;3.676;2023-04-25T04:30:51;2.22;;;1.52;;
78774;SDS011;68119;43.398;3.676;2023-04-25T04:33:17;1.65;;;1.55;;
78774;SDS011;68119;43.398;3.676;2023-04-25T04:35:45;1.83;;;1.55;;
78774;SDS011;68119;43.398;3.676;2023-04-25T04:38:12;1.83;;;1.50;;
78774;SDS011;68119;43.398;3.676;2023-04-25T04:40:42;1.60;;;1.48;;
78774;SDS011;68119;43.398;3.676;2023-04-25T04:43:09;2.15;;;1.50;;
78774;SDS011;68119;43.398;3.676;2023-04-25T04:45:35;1.55;;;1.40;;
78774;SDS011;68119;43.398;3.676;2023-04-25T04:48:04;1.83;;;1.35;;
78774;SDS011;68119;43.398;3.676;2023-04-25T04:50:30;1.58;;;1.40;;
78774;SDS011;68119;43.398;3.676;2023-04-25T04:52:57;2.25;;;1.52;;
78774;SDS011;68119;43.398;3.676;2023-04-25T04:55:23;2.22;;;1.65;;
78774;SDS011;68119;43.398;3.676;2023-04-25T04:57:52;1.63;;;1.50;;
78774;SDS011;68119;43.398;3.676;2023-04-25T05:00:24;2.10;;;1.60;;
78774;SDS011;68119;43.398;3.676;2023-04-25T05:02:51;2.63;;;1.33;;
78774;SDS011;68119;43.398;3.676;2023-04-25T05:05:22;2.35;;;1.50;;
78774;SDS011;68119;43.398;3.676;2023-04-25T05:07:48;1.40;;;1.30;;
78774;SDS011;68119;43.398;3.676;2023-04-25T05:10:23;2.15;;;1.63;;
78774;SDS011;68119;43.398;3.676;2023-04-25T05:12:51;1.40;;;1.30;;
78774;SDS011;68119;43.398;3.676;2023-04-25T05:15:20;1.20;;;1.15;;
78774;SDS011;68119;43.398;3.676;2023-04-25T05:17:46;1.50;;;1.40;;
78774;SDS011;68119;43.398;3.676;2023-04-25T05:20:15;2.70;;;1.40;;
78774;SDS011;68119;43.398;3.676;2023-04-25T05:22:43;2.70;;;1.45;;
78774;SDS011;68119;43.398;3.676;2023-04-25T05:25:11;3.08;;;1.40;;
78774;SDS011;68119;43.398;3.676;2023-04-25T05:27:39;1.63;;;1.20;;
78774;SDS011;68119;43.398;3.676;2023-04-25T05:30:10;2.00;;;1.40;;
78774;SDS011;68119;43.398;3.676;2023-04-25T05:32:36;1.77;;;1.50;;
78774;SDS011;68119;43.398;3.676;2023-04-25T05:35:14;2.03;;;1.48;;
78774;SDS011;68119;43.398;3.676;2023-04-25T05:37:40;1.42;;;1.33;;
78774;SDS011;68119;43.398;3.676;2023-04-25T05:40:07;1.70;;;1.50;;
78774;SDS011;68119;43.398;3.676;2023-04-25T05:42:34;3.63;;;1.55;;
78774;SDS011;68119;43.398;3.676;2023-04-25T05:45:03;1.77;;;1.55;;
78774;SDS011;68119;43.398;3.676;2023-04-25T05:47:29;2.10;;;1.50;;
78774;SDS011;68119;43.398;3.676;2023-04-25T05:50:01;1.75;;;1.40;;
78774;SDS011;68119;43.398;3.676;2023-04-25T05:52:27;1.90;;;1.30;;
78774;SDS011;68119;43.398;3.676;2023-04-25T05:54:53;2.67;;;1.40;;
78774;SDS011;68119;43.398;3.676;2023-04-25T05:57:38;2.50;;;1.45;;
78774;SDS011;68119;43.398;3.676;2023-04-25T06:00:07;5.90;;;1.55;;
78774;SDS011;68119;43.398;3.676;2023-04-25T06:02:34;2.63;;;1.50;;
78774;SDS011;68119;43.398;3.676;2023-04-25T06:05:03;1.60;;;1.45;;
78774;SDS011;68119;43.398;3.676;2023-04-25T06:07:32;1.73;;;1.30;;
78774;SDS011;68119;43.398;3.676;2023-04-25T06:10:03;3.15;;;1.38;;
78774;SDS011;68119;43.398;3.676;2023-04-25T06:12:32;2.25;;;1.50;;
78774;SDS011;68119;43.398;3.676;2023-04-25T06:15:01;1.95;;;1.30;;
78774;SDS011;68119;43.398;3.676;2023-04-25T06:17:32;3.13;;;1.30;;
78774;SDS011;68119;43.398;3.676;2023-04-25T06:19:58;2.35;;;1.35;;
78774;SDS011;68119;43.398;3.676;2023-04-25T06:22:27;1.40;;;1.20;;
78774;SDS011;68119;43.398;3.676;2023-04-25T06:24:54;1.88;;;1.40;;
78774;SDS011;68119;43.398;3.676;2023-04-25T06:27:31;1.35;;;1.25;;
78774;SDS011;68119;43.398;3.676;2023-04-25T06:29:57;1.65;;;1.08;;
78774;SDS011;68119;43.398;3.676;2023-04-25T06:32:26;1.15;;;1.08;;
78774;SDS011;68119;43.398;3.676;2023-04-25T06:35:00;2.20;;;1.08;;
78774;SDS011;68119;43.398;3.676;2023-04-25T06:37:26;2.50;;;1.20;;
78774;SDS011;68119;43.398;3.676;2023-04-25T06:39:52;11.07;;;1.35;;
78774;SDS011;68119;43.398;3.676;2023-04-25T06:42:24;0.90;;;0.90;;
78774;SDS011;68119;43.398;3.676;2023-04-25T06:44:50;0.90;;;0.73;;
78774;SDS011;68119;43.398;3.676;2023-04-25T06:47:19;2.70;;;1.13;;
78774;SDS011;68119;43.398;3.676;2023-04-25T06:49:50;2.22;;;0.88;;
78774;SDS011;68119;43.398;3.676;2023-04-25T06:54:45;1.50;;;1.00;;
78774;SDS011;68119;43.398;3.676;2023-04-25T06:57:20;1.25;;;0.80;;
78774;SDS011;68119;43.398;3.676;2023-04-25T06:59:46;1.50;;;1.00;;
78774;SDS011;68119;43.398;3.676;2023-04-25T07:02:15;5.18;;;1.30;;
78774;SDS011;68119;43.398;3.676;2023-04-25T07:04:41;1.08;;;1.02;;
78774;SDS011;68119;43.398;3.676;2023-04-25T07:07:10;1.98;;;0.95;;
78774;SDS011;68119;43.398;3.676;2023-04-25T07:09:36;0.77;;;0.70;;
78774;SDS011;68119;43.398;3.676;2023-04-25T07:12:07;1.38;;;0.57;;
78774;SDS011;68119;43.398;3.676;2023-04-25T07:14:35;1.55;;;0.80;;
78774;SDS011;68119;43.398;3.676;2023-04-25T07:17:01;1.58;;;0.68;;
78774;SDS011;68119;43.398;3.676;2023-04-25T07:19:30;1.00;;;0.65;;
78774;SDS011;68119;43.398;3.676;2023-04-25T07:21:59;2.55;;;0.70;;
78774;SDS011;68119;43.398;3.676;2023-04-25T07:24:28;1.00;;;0.70;;
78774;SDS011;68119;43.398;3.676;2023-04-25T07:26:54;0.68;;;0.60;;
78774;SDS011;68119;43.398;3.676;2023-04-25T07:29:23;1.05;;;0.88;;
78774;SDS011;68119;43.398;3.676;2023-04-25T07:31:49;2.75;;;0.70;;
78774;SDS011;68119;43.398;3.676;2023-04-25T07:34:17;1.13;;;1.02;;
78774;SDS011;68119;43.398;3.676;2023-04-25T07:36:44;0.47;;;0.47;;
78774;SDS011;68119;43.398;3.676;2023-04-25T07:39:12;0.75;;;0.70;;
78774;SDS011;68119;43.398;3.676;2023-04-25T07:41:43;0.50;;;0.50;;
78774;SDS011;68119;43.398;3.676;2023-04-25T07:46:40;0.77;;;0.40;;
78774;SDS011;68119;43.398;3.676;2023-04-25T07:49:09;0.85;;;0.60;;
78774;SDS011;68119;43.398;3.676;2023-04-25T07:51:37;0.77;;;0.68;;
78774;SDS011;68119;43.398;3.676;2023-04-25T07:54:06;1.88;;;0.52;;
78774;SDS011;68119;43.398;3.676;2023-04-25T07:56:34;1.35;;;0.55;;
78774;SDS011;68119;43.398;3.676;2023-04-25T07:59:03;2.25;;;0.70;;
78774;SDS011;68119;43.398;3.676;2023-04-25T08:01:30;1.40;;;0.70;;
78774;SDS011;68119;43.398;3.676;2023-04-25T08:03:58;0.57;;;0.40;;
78774;SDS011;68119;43.398;3.676;2023-04-25T08:06:25;0.95;;;0.30;;
78774;SDS011;68119;43.398;3.676;2023-04-25T08:08:51;1.60;;;0.52;;
78774;SDS011;68119;43.398;3.676;2023-04-25T08:11:17;1.38;;;0.77;;
78774;SDS011;68119;43.398;3.676;2023-04-25T08:13:46;3.97;;;0.98;;
78774;SDS011;68119;43.398;3.676;2023-04-25T08:16:12;2.05;;;0.80;;
78774;SDS011;68119;43.398;3.676;2023-04-25T08:18:38;2.85;;;0.70;;
78774;SDS011;68119;43.398;3.676;2023-04-25T08:21:04;0.70;;;0.70;;
78774;SDS011;68119;43.398;3.676;2023-04-25T08:23:34;0.60;;;0.60;;
78774;SDS011;68119;43.398;3.676;2023-04-25T08:26:00;0.73;;;0.50;;
78774;SDS011;68119;43.398;3.676;2023-04-25T08:28:26;2.47;;;0.70;;
78774;SDS011;68119;43.398;3.676;2023-04-25T08:30:54;3.45;;;0.60;;
78774;SDS011;68119;43.398;3.676;2023-04-25T08:33:20;0.60;;;0.60;;
78774;SDS011;68119;43.398;3.676;2023-04-25T08:35:47;1.25;;;0.70;;
78774;SDS011;68119;43.398;3.676;2023-04-25T08:38:13;1.65;;;0.80;;
78774;SDS011;68119;43.398;3.676;2023-04-25T08:40:39;2.70;;;0.85;;
78774;SDS011;68119;43.398;3.676;2023-04-25T08:43:08;3.30;;;0.82;;
78774;SDS011;68119;43.398;3.676;2023-04-25T08:45:39;1.75;;;0.75;;
78774;SDS011;68119;43.398;3.676;2023-04-25T08:48:07;0.65;;;0.60;;
78774;SDS011;68119;43.398;3.676;2023-04-25T08:50:46;1.45;;;0.80;;
78774;SDS011;68119;43.398;3.676;2023-04-25T08:53:16;1.45;;;0.80;;
78774;SDS011;68119;43.398;3.676;2023-04-25T08:55:47;0.80;;;0.80;;
78774;SDS011;68119;43.398;3.676;2023-04-25T08:58:14;0.82;;;0.68;;
78774;SDS011;68119;43.398;3.676;2023-04-25T09:00:40;1.33;;;0.65;;
78774;SDS011;68119;43.398;3.676;2023-04-25T09:03:07;1.27;;;0.68;;
78774;SDS011;68119;43.398;3.676;2023-04-25T09:05:33;1.17;;;0.95;;
78774;SDS011;68119;43.398;3.676;2023-04-25T09:08:00;1.83;;;0.88;;
78774;SDS011;68119;43.398;3.676;2023-04-25T09:10:27;0.93;;;0.77;;
78774;SDS011;68119;43.398;3.676;2023-04-25T09:13:12;1.23;;;0.73;;
78774;SDS011;68119;43.398;3.676;2023-04-25T09:15:49;2.10;;;0.80;;
78774;SDS011;68119;43.398;3.676;2023-04-25T09:20:51;3.45;;;0.90;;
78774;SDS011;68119;43.398;3.676;2023-04-25T09:23:21;2.70;;;0.77;;
78774;SDS011;68119;43.398;3.676;2023-04-25T09:25:48;0.70;;;0.70;;
78774;SDS011;68119;43.398;3.676;2023-04-25T09:28:26;0.95;;;0.70;;
78774;SDS011;68119;43.398;3.676;2023-04-25T09:30:56;1.63;;;1.00;;
78774;SDS011;68119;43.398;3.676;2023-04-25T09:33:32;0.77;;;0.77;;
78774;SDS011;68119;43.398;3.676;2023-04-25T09:36:11;2.65;;;1.45;;
78774;SDS011;68119;43.398;3.676;2023-04-25T09:38:45;3.95;;;1.38;;
78774;SDS011;68119;43.398;3.676;2023-04-25T09:41:23;4.05;;;2.20;;
78774;SDS011;68119;43.398;3.676;2023-04-25T09:43:53;3.72;;;2.00;;
78774;SDS011;68119;43.398;3.676;2023-04-25T09:46:23;5.68;;;2.47;;
78774;SDS011;68119;43.398;3.676;2023-04-25T09:48:51;4.57;;;2.10;;
78774;SDS011;68119;43.398;3.676;2023-04-25T09:51:20;1.60;;;1.50;;
78774;SDS011;68119;43.398;3.676;2023-04-25T09:53:55;5.50;;;1.23;;
78774;SDS011;68119;43.398;3.676;2023-04-25T09:56:24;1.40;;;1.15;;
78774;SDS011;68119;43.398;3.676;2023-04-25T09:58:55;1.88;;;1.23;;
78774;SDS011;68119;43.398;3.676;2023-04-25T10:01:21;2.15;;;1.20;;
78774;SDS011;68119;43.398;3.676;2023-04-25T10:03:49;1.15;;;1.15;;
78774;SDS011;68119;43.398;3.676;2023-04-25T10:06:19;1.42;;;1.30;;
78774;SDS011;68119;43.398;3.676;2023-04-25T10:08:46;2.13;;;1.20;;
78774;SDS011;68119;43.398;3.676;2023-04-25T10:11:14;1.27;;;1.17;;
78774;SDS011;68119;43.398;3.676;2023-04-25T10:13:40;1.40;;;1.30;;
78774;SDS011;68119;43.398;3.676;2023-04-25T10:16:07;3.65;;;1.60;;
78774;SDS011;68119;43.398;3.676;2023-04-25T10:18:39;1.25;;;1.15;;
78774;SDS011;68119;43.398;3.676;2023-04-25T10:21:07;3.75;;;1.40;;
78774;SDS011;68119;43.398;3.676;2023-04-25T10:23:38;2.13;;;0.85;;
78774;SDS011;68119;43.398;3.676;2023-04-25T10:26:05;0.60;;;0.60;;
78774;SDS011;68119;43.398;3.676;2023-04-25T10:28:57;1.20;;;1.10;;
78774;SDS011;68119;43.398;3.676;2023-04-25T10:31:23;3.03;;;1.10;;
78774;SDS011;68119;43.398;3.676;2023-04-25T10:33:49;0.70;;;0.70;;
78774;SDS011;68119;43.398;3.676;2023-04-25T10:36:24;3.72;;;0.85;;
78774;SDS011;68119;43.398;3.676;2023-04-25T10:38:52;1.00;;;0.85;;
78774;SDS011;68119;43.398;3.676;2023-04-25T10:41:23;1.02;;;0.90;;
78774;SDS011;68119;43.398;3.676;2023-04-25T10:43:49;0.60;;;0.60;;
78774;SDS011;68119;43.398;3.676;2023-04-25T10:48:45;0.60;;;0.60;;
78774;SDS011;68119;43.398;3.676;2023-04-25T10:53:45;0.77;;;0.60;;
78774;SDS011;68119;43.398;3.676;2023-04-25T10:56:16;0.80;;;0.50;;
78774;SDS011;68119;43.398;3.676;2023-04-25T10:58:45;0.70;;;0.70;;
78774;SDS011;68119;43.398;3.676;2023-04-25T11:01:14;1.42;;;0.80;;
78774;SDS011;68119;43.398;3.676;2023-04-25T11:03:41;0.70;;;0.70;;
78774;SDS011;68119;43.398;3.676;2023-04-25T11:06:20;2.63;;;0.73;;
78774;SDS011;68119;43.398;3.676;2023-04-25T11:08:51;1.90;;;1.02;;
78774;SDS011;68119;43.398;3.676;2023-04-25T11:11:17;1.88;;;0.70;;
78774;SDS011;68119;43.398;3.676;2023-04-25T11:13:44;0.40;;;0.40;;
78774;SDS011;68119;43.398;3.676;2023-04-25T11:16:13;0.88;;;0.80;;
78774;SDS011;68119;43.398;3.676;2023-04-25T11:18:45;1.48;;;0.60;;
78774;SDS011;68119;43.398;3.676;2023-04-25T11:21:13;0.47;;;0.45;;
78774;SDS011;68119;43.398;3.676;2023-04-25T11:23:39;0.98;;;0.43;;
78774;SDS011;68119;43.398;3.676;2023-04-25T11:26:05;1.27;;;0.43;;
78774;SDS011;68119;43.398;3.676;2023-04-25T11:28:37;0.30;;;0.30;;
78774;SDS011;68119;43.398;3.676;2023-04-25T11:31:03;1.30;;;0.50;;
78774;SDS011;68119;43.398;3.676;2023-04-25T11:33:30;0.68;;;0.68;;
78774;SDS011;68119;43.398;3.676;2023-04-25T11:35:56;0.73;;;0.40;;
78774;SDS011;68119;43.398;3.676;2023-04-25T11:38:22;0.65;;;0.40;;
78774;SDS011;68119;43.398;3.676;2023-04-25T11:40:49;0.98;;;0.35;;
78774;SDS011;68119;43.398;3.676;2023-04-25T11:43:16;0.30;;;0.30;;
78774;SDS011;68119;43.398;3.676;2023-04-25T11:45:46;0.38;;;0.17;;
78774;SDS011;68119;43.398;3.676;2023-04-25T11:48:13;0.45;;;0.30;;
78774;SDS011;68119;43.398;3.676;2023-04-25T11:50:39;0.40;;;0.40;;
78774;SDS011;68119;43.398;3.676;2023-04-25T11:53:05;2.10;;;0.50;;
78774;SDS011;68119;43.398;3.676;2023-04-25T11:55:35;0.80;;;0.37;;
78774;SDS011;68119;43.398;3.676;2023-04-25T11:58:05;0.40;;;0.40;;
78774;SDS011;68119;43.398;3.676;2023-04-25T12:00:34;1.38;;;0.35;;
78774;SDS011;68119;43.398;3.676;2023-04-25T12:03:00;0.30;;;0.30;;
78774;SDS011;68119;43.398;3.676;2023-04-25T12:05:28;0.32;;;0.32;;
78774;SDS011;68119;43.398;3.676;2023-04-25T12:07:55;0.45;;;0.32;;
78774;SDS011;68119;43.398;3.676;2023-04-25T12:10:25;0.98;;;0.25;;
78774;SDS011;68119;43.398;3.676;2023-04-25T12:12:51;1.85;;;0.50;;
78774;SDS011;68119;43.398;3.676;2023-04-25T12:15:22;0.43;;;0.30;;
78774;SDS011;68119;43.398;3.676;2023-04-25T12:17:49;1.10;;;0.30;;
78774;SDS011;68119;43.398;3.676;2023-04-25T12:20:16;1.90;;;0.40;;
78774;SDS011;68119;43.398;3.676;2023-04-25T12:22:44;3.70;;;0.52;;
78774;SDS011;68119;43.398;3.676;2023-04-25T12:25:13;1.70;;;0.30;;
78774;SDS011;68119;43.398;3.676;2023-04-25T12:27:40;0.88;;;0.30;;
78774;SDS011;68119;43.398;3.676;2023-04-25T12:30:07;3.50;;;0.50;;
78774;SDS011;68119;43.398;3.676;2023-04-25T12:32:34;0.57;;;0.30;;
78774;SDS011;68119;43.398;3.676;2023-04-25T12:35:01;1.08;;;0.40;;
78774;SDS011;68119;43.398;3.676;2023-04-25T12:37:29;0.75;;;0.40;;
78774;SDS011;68119;43.398;3.676;2023-04-25T12:39:55;0.30;;;0.22;;
78774;SDS011;68119;43.398;3.676;2023-04-25T12:42:24;1.27;;;0.40;;
78774;SDS011;68119;43.398;3.676;2023-04-25T12:44:50;0.30;;;0.30;;
78774;SDS011;68119;43.398;3.676;2023-04-25T12:47:19;2.63;;;0.40;;
78774;SDS011;68119;43.398;3.676;2023-04-25T12:49:50;0.22;;;0.22;;
78774;SDS011;68119;43.398;3.676;2023-04-25T12:54:50;0.40;;;0.40;;
78774;SDS011;68119;43.398;3.676;2023-04-25T12:57:19;2.33;;;0.43;;
78774;SDS011;68119;43.398;3.676;2023-04-25T12:59:45;2.47;;;0.60;;
78774;SDS011;68119;43.398;3.676;2023-04-25T13:02:11;3.40;;;0.80;;
78774;SDS011;68119;43.398;3.676;2023-04-25T13:04:40;0.57;;;0.50;;
78774;SDS011;68119;43.398;3.676;2023-04-25T13:07:06;0.80;;;0.55;;
78774;SDS011;68119;43.398;3.676;2023-04-25T13:09:32;0.80;;;0.77;;
78774;SDS011;68119;43.398;3.676;2023-04-25T13:11:59;6.15;;;0.85;;
78774;SDS011;68119;43.398;3.676;2023-04-25T13:14:25;0.82;;;0.60;;
78774;SDS011;68119;43.398;3.676;2023-04-25T13:16:51;1.45;;;0.82;;
78774;SDS011;68119;43.398;3.676;2023-04-25T13:19:28;1.60;;;1.00;;
78774;SDS011;68119;43.398;3.676;2023-04-25T13:21:54;1.52;;;0.52;;
78774;SDS011;68119;43.398;3.676;2023-04-25T13:24:23;1.10;;;0.57;;
78774;SDS011;68119;43.398;3.676;2023-04-25T13:26:52;1.50;;;0.73;;
78774;SDS011;68119;43.398;3.676;2023-04-25T13:29:19;1.42;;;0.50;;
78774;SDS011;68119;43.398;3.676;2023-04-25T13:31:47;1.10;;;0.52;;
78774;SDS011;68119;43.398;3.676;2023-04-25T13:34:16;0.52;;;0.30;;
78774;SDS011;68119;43.398;3.676;2023-04-25T13:36:42;2.83;;;0.50;;
78774;SDS011;68119;43.398;3.676;2023-04-25T13:39:10;0.85;;;0.73;;
78774;SDS011;68119;43.398;3.676;2023-04-25T13:41:37;1.77;;;0.52;;
78774;SDS011;68119;43.398;3.676;2023-04-25T13:44:03;1.33;;;0.50;;
78774;SDS011;68119;43.398;3.676;2023-04-25T13:46:29;1.35;;;0.60;;
78774;SDS011;68119;43.398;3.676;2023-04-25T13:48:55;2.70;;;0.80;;
78774;SDS011;68119;43.398;3.676;2023-04-25T13:51:24;1.27;;;0.60;;
78774;SDS011;68119;43.398;3.676;2023-04-25T13:53:53;1.30;;;0.60;;
78774;SDS011;68119;43.398;3.676;2023-04-25T13:56:19;2.28;;;0.80;;
78774;SDS011;68119;43.398;3.676;2023-04-25T13:58:48;3.33;;;1.00;;
78774;SDS011;68119;43.398;3.676;2023-04-25T14:01:17;2.35;;;0.88;;
78774;SDS011;68119;43.398;3.676;2023-04-25T14:03:51;8.25;;;1.13;;
78774;SDS011;68119;43.398;3.676;2023-04-25T14:06:20;0.85;;;0.75;;
78774;SDS011;68119;43.398;3.676;2023-04-25T14:08:49;2.85;;;1.15;;
78774;SDS011;68119;43.398;3.676;2023-04-25T14:11:15;1.40;;;0.90;;
78774;SDS011;68119;43.398;3.676;2023-04-25T14:13:44;2.47;;;0.75;;
78774;SDS011;68119;43.398;3.676;2023-04-25T14:16:10;4.60;;;1.35;;
78774;SDS011;68119;43.398;3.676;2023-04-25T14:18:36;1.08;;;0.98;;
78774;SDS011;68119;43.398;3.676;2023-04-25T14:21:03;1.35;;;0.80;;
78774;SDS011;68119;43.398;3.676;2023-04-25T14:23:29;1.73;;;1.08;;
78774;SDS011;68119;43.398;3.676;2023-04-25T14:25:55;0.93;;;0.93;;
78774;SDS011;68119;43.398;3.676;2023-04-25T14:28:25;1.75;;;1.27;;
78774;SDS011;68119;43.398;3.676;2023-04-25T14:30:51;2.20;;;1.02;;
78774;SDS011;68119;43.398;3.676;2023-04-25T14:33:17;1.73;;;1.20;;
78774;SDS011;68119;43.398;3.676;2023-04-25T14:35:46;2.70;;;1.05;;
78774;SDS011;68119;43.398;3.676;2023-04-25T14:38:12;1.48;;;1.00;;
78774;SDS011;68119;43.398;3.676;2023-04-25T14:40:43;3.35;;;1.20;;
78774;SDS011;68119;43.398;3.676;2023-04-25T14:43:14;1.58;;;1.02;;
78774;SDS011;68119;43.398;3.676;2023-04-25T14:45:45;1.55;;;1.27;;
78774;SDS011;68119;43.398;3.676;2023-04-25T14:48:13;7.68;;;1.13;;
78774;SDS011;68119;43.398;3.676;2023-04-25T14:50:42;3.17;;;1.00;;
78774;SDS011;68119;43.398;3.676;2023-04-25T14:53:11;2.35;;;1.00;;
78774;SDS011;68119;43.398;3.676;2023-04-25T14:55:37;2.65;;;1.10;;
78774;SDS011;68119;43.398;3.676;2023-04-25T14:58:03;1.27;;;1.17;;
78774;SDS011;68119;43.398;3.676;2023-04-25T15:00:30;1.52;;;1.05;;
78774;SDS011;68119;43.398;3.676;2023-04-25T15:02:56;1.80;;;1.20;;
78774;SDS011;68119;43.398;3.676;2023-04-25T15:05:23;2.00;;;1.20;;
78774;SDS011;68119;43.398;3.676;2023-04-25T15:07:54;1.50;;;1.30;;
78774;SDS011;68119;43.398;3.676;2023-04-25T15:10:22;1.20;;;1.10;;
78774;SDS011;68119;43.398;3.676;2023-04-25T15:12:53;1.90;;;1.30;;